createdAt,value
2018-10-01T00:00:09.162Z,7.53
2018-10-01T00:02:37.713Z,8.77
2018-10-01T00:05:06.256Z,7.83
2018-10-01T00:07:34.763Z,6.50
2018-10-01T00:10:03.335Z,8.13
2018-10-01T00:12:31.835Z,8.30
2018-10-01T00:15:00.358Z,7.67
2018-10-01T00:17:28.917Z,8.33
2018-10-01T00:20:02.765Z,7.90
2018-10-01T00:22:36.697Z,8.37
2018-10-01T00:25:05.212Z,8.80
2018-10-01T00:27:33.689Z,9.87
2018-10-01T00:30:02.241Z,7.50
2018-10-01T00:32:30.786Z,9.77
2018-10-01T00:34:59.291Z,9.83
2018-10-01T00:37:27.783Z,11.97
2018-10-01T00:39:56.301Z,9.83
2018-10-01T00:42:24.864Z,10.60
2018-10-01T00:44:53.398Z,11.17
2018-10-01T00:47:21.976Z,10.50
2018-10-01T00:49:50.491Z,12.30
2018-10-01T00:52:19.044Z,11.50
2018-10-01T00:54:47.557Z,12.20
2018-10-01T00:57:16.097Z,12.33
2018-10-01T00:59:44.694Z,11.30
2018-10-01T01:02:13.232Z,12.97
2018-10-01T01:04:41.846Z,13.90
2018-10-01T01:07:10.592Z,12.60
2018-10-01T01:09:39.132Z,10.67
2018-10-01T01:12:07.862Z,12.00
2018-10-01T01:14:36.466Z,12.43
2018-10-01T01:17:04.977Z,12.50
2018-10-01T01:19:33.524Z,12.27
2018-10-01T01:22:02.068Z,11.33
2018-10-01T01:24:30.572Z,12.80
2018-10-01T01:26:59.098Z,12.30
2018-10-01T01:29:27.615Z,12.90
2018-10-01T01:31:56.156Z,12.27
2018-10-01T01:34:24.671Z,11.20
2018-10-01T01:36:53.256Z,12.53
2018-10-01T01:39:21.808Z,11.60
2018-10-01T01:41:50.316Z,12.83
2018-10-01T01:44:18.871Z,11.37
2018-10-01T01:46:47.391Z,10.63
2018-10-01T01:49:15.975Z,10.70
2018-10-01T01:51:44.591Z,10.37
2018-10-01T01:54:13.133Z,9.47
2018-10-01T01:56:41.656Z,7.20
2018-10-01T01:59:10.264Z,8.27
2018-10-01T02:01:38.865Z,8.37
2018-10-01T02:04:07.420Z,7.73
2018-10-01T02:06:35.936Z,7.10
2018-10-01T02:09:05.778Z,6.60
2018-10-01T02:11:34.268Z,6.80
2018-10-01T02:14:02.831Z,8.63
2018-10-01T02:16:31.377Z,7.30
2018-10-01T02:18:59.944Z,6.87
2018-10-01T02:21:28.538Z,5.30
2018-10-01T02:23:57.078Z,5.50
2018-10-01T02:26:25.648Z,4.17
2018-10-01T02:28:54.192Z,3.50
2018-10-01T02:31:22.742Z,3.60
2018-10-01T02:33:51.228Z,3.47
2018-10-01T02:36:19.773Z,3.27
2018-10-01T02:38:48.271Z,3.30
2018-10-01T02:41:16.750Z,4.00
2018-10-01T02:43:45.268Z,3.90
2018-10-01T02:46:13.787Z,3.70
2018-10-01T02:48:42.304Z,3.33
2018-10-01T02:51:10.836Z,3.40
2018-10-01T02:53:44.656Z,4.13
2018-10-01T02:56:13.166Z,3.60
2018-10-01T02:58:41.732Z,3.80
2018-10-01T03:01:10.263Z,3.80
2018-10-01T03:03:38.749Z,3.23
2018-10-01T03:06:07.383Z,2.33
2018-10-01T03:08:35.887Z,2.23
2018-10-01T03:11:04.396Z,1.70
2018-10-01T03:13:32.923Z,2.03
2018-10-01T03:16:01.483Z,2.07
2018-10-01T03:18:30.001Z,1.67
2018-10-01T03:20:58.500Z,1.83
2018-10-01T03:23:27.020Z,1.50
2018-10-01T03:25:55.550Z,1.63
2018-10-01T03:28:24.060Z,1.40
2018-10-01T03:30:52.587Z,1.57
2018-10-01T03:33:21.115Z,1.57
2018-10-01T03:35:49.613Z,1.33
2018-10-01T03:38:18.120Z,1.50
2018-10-01T03:40:46.685Z,1.73
2018-10-01T03:43:15.231Z,1.30
2018-10-01T03:45:43.743Z,1.70
2018-10-01T03:48:12.264Z,1.40
2018-10-01T03:50:40.797Z,1.93
2018-10-01T03:53:09.347Z,1.87
2018-10-01T03:55:37.879Z,2.40
2018-10-01T03:58:06.418Z,1.80
2018-10-01T04:00:34.952Z,1.90
2018-10-01T04:03:03.523Z,2.27
2018-10-01T04:05:32.000Z,2.10
2018-10-01T04:08:00.564Z,2.00
2018-10-01T04:10:29.096Z,1.87
2018-10-01T04:12:57.659Z,2.03
2018-10-01T04:15:26.207Z,2.00
2018-10-01T04:17:54.741Z,2.40
2018-10-01T04:20:23.215Z,2.50
2018-10-01T04:22:51.873Z,2.60
2018-10-01T04:25:20.311Z,2.60
2018-10-01T04:27:48.823Z,2.00
2018-10-01T04:30:17.353Z,2.47
2018-10-01T04:32:45.875Z,2.67
2018-10-01T04:35:14.399Z,2.20
2018-10-01T04:37:43.036Z,2.30
2018-10-01T04:40:11.947Z,2.37
2018-10-01T04:42:40.678Z,1.63
2018-10-01T04:45:09.219Z,2.23
2018-10-01T04:47:37.757Z,2.40
2018-10-01T04:50:06.585Z,2.60
2018-10-01T04:52:35.175Z,2.80
2018-10-01T04:55:04.063Z,2.37
2018-10-01T04:57:32.696Z,2.77
2018-10-01T05:00:01.231Z,2.37
2018-10-01T05:02:29.748Z,2.70
2018-10-01T05:04:58.296Z,2.30
2018-10-01T05:07:26.835Z,2.47
2018-10-01T05:09:55.352Z,2.33
2018-10-01T05:12:23.872Z,2.10
2018-10-01T05:14:52.445Z,2.00
2018-10-01T05:17:20.928Z,2.33
2018-10-01T05:19:49.456Z,2.20
2018-10-01T05:22:17.988Z,2.93
2018-10-01T05:24:46.512Z,2.23
2018-10-01T05:27:15.088Z,2.10
2018-10-01T05:29:43.599Z,2.20
2018-10-01T05:32:12.071Z,2.37
2018-10-01T05:34:40.659Z,2.50
2018-10-01T05:37:09.208Z,2.50
2018-10-01T05:39:37.757Z,1.90
2018-10-01T05:42:06.557Z,2.40
2018-10-01T05:44:35.109Z,1.67
2018-10-01T05:47:04.049Z,1.50
2018-10-01T05:49:32.565Z,1.50
2018-10-01T05:52:01.113Z,1.57
2018-10-01T05:54:29.649Z,1.43
2018-10-01T05:56:58.177Z,0.90
2018-10-01T05:59:26.711Z,1.40
2018-10-01T06:01:55.567Z,1.00
2018-10-01T06:04:24.376Z,0.90
2018-10-01T06:06:52.896Z,0.80
2018-10-01T06:09:21.484Z,0.77
2018-10-01T06:11:50.010Z,0.80
2018-10-01T06:14:18.520Z,1.13
2018-10-01T06:16:47.053Z,0.90
2018-10-01T06:19:15.628Z,0.83
2018-10-01T06:21:44.134Z,0.93
2018-10-01T06:24:12.664Z,0.80
2018-10-01T06:26:41.161Z,1.00
2018-10-01T06:29:09.694Z,0.90
2018-10-01T06:31:38.205Z,0.93
2018-10-01T06:34:06.693Z,1.07
2018-10-01T06:36:35.244Z,1.00
2018-10-01T06:39:05.784Z,0.87
2018-10-01T06:41:34.412Z,1.13
2018-10-01T06:44:02.956Z,0.93
2018-10-01T06:46:31.483Z,1.00
2018-10-01T06:49:00.044Z,0.90
2018-10-01T06:51:28.555Z,1.13
2018-10-01T06:53:57.119Z,1.07
2018-10-01T06:56:25.645Z,0.80
2018-10-01T06:58:54.272Z,0.93
2018-10-01T07:01:22.868Z,1.07
2018-10-01T07:03:51.305Z,1.00
2018-10-01T07:06:19.849Z,1.10
2018-10-01T07:08:48.407Z,1.23
2018-10-01T07:11:16.932Z,0.80
2018-10-01T07:13:45.490Z,0.93
2018-10-01T07:16:14.063Z,1.40
2018-10-01T07:18:42.588Z,1.50
2018-10-01T07:21:11.083Z,0.90
2018-10-01T07:23:39.656Z,1.10
2018-10-01T07:26:08.152Z,1.27
2018-10-01T07:28:36.736Z,0.87
2018-10-01T07:31:05.299Z,1.20
2018-10-01T07:33:33.816Z,0.90
2018-10-01T07:36:02.397Z,1.23
2018-10-01T07:38:30.935Z,0.80
2018-10-01T07:40:59.477Z,1.00
2018-10-01T07:43:27.963Z,1.20
2018-10-01T07:45:56.498Z,0.80
2018-10-01T07:48:25.311Z,0.90
2018-10-01T07:50:53.897Z,1.10
2018-10-01T07:53:22.414Z,0.80
2018-10-01T07:55:50.904Z,1.00
2018-10-01T07:58:19.419Z,1.27
2018-10-01T08:00:47.955Z,1.30
2018-10-01T08:03:16.476Z,0.83
2018-10-01T08:05:44.999Z,1.30
2018-10-01T08:08:13.562Z,1.13
2018-10-01T08:10:42.095Z,1.70
2018-10-01T08:13:10.592Z,0.80
2018-10-01T08:15:40.010Z,1.40
2018-10-01T08:18:08.504Z,0.97
2018-10-01T08:20:37.055Z,1.30
2018-10-01T08:23:05.736Z,1.03
2018-10-01T08:25:34.268Z,1.20
2018-10-01T08:28:02.822Z,1.30
2018-10-01T08:30:31.336Z,1.10
2018-10-01T08:32:59.850Z,1.10
2018-10-01T08:35:28.605Z,1.37
2018-10-01T08:37:57.175Z,1.17
2018-10-01T08:40:26.127Z,0.90
2018-10-01T08:42:55.094Z,1.00
2018-10-01T08:45:23.620Z,0.90
2018-10-01T08:47:52.171Z,1.10
2018-10-01T08:50:26.487Z,0.80
2018-10-01T08:53:00.387Z,0.70
2018-10-01T08:55:28.971Z,0.77
2018-10-01T08:57:57.480Z,1.17
2018-10-01T09:00:26.036Z,1.70
2018-10-01T09:02:54.584Z,4.00
2018-10-01T09:05:23.136Z,4.03
2018-10-01T09:07:51.685Z,5.47
2018-10-01T09:10:20.404Z,4.10
2018-10-01T09:12:48.954Z,4.37
2018-10-01T09:15:17.448Z,4.83
2018-10-01T09:17:46.067Z,5.00
2018-10-01T09:20:14.657Z,5.10
2018-10-01T09:22:43.108Z,5.17
2018-10-01T09:25:11.656Z,5.77
2018-10-01T09:27:40.161Z,6.10
2018-10-01T09:30:08.684Z,6.40
2018-10-01T09:32:37.242Z,6.63
2018-10-01T09:35:05.747Z,5.80
2018-10-01T09:37:34.268Z,8.77
2018-10-01T09:40:02.844Z,8.47
2018-10-01T09:42:31.381Z,8.20
2018-10-01T09:44:59.897Z,9.20
2018-10-01T09:47:28.427Z,10.20
2018-10-01T09:49:56.997Z,7.83
2018-10-01T09:52:25.799Z,9.93
2018-10-01T09:54:54.291Z,9.40
2018-10-01T09:57:22.819Z,9.63
2018-10-01T09:59:51.360Z,10.10
2018-10-01T10:02:19.893Z,9.20
2018-10-01T10:04:48.410Z,8.80
2018-10-01T10:07:16.894Z,9.13
2018-10-01T10:09:45.403Z,8.77
2018-10-01T10:12:13.969Z,9.43
2018-10-01T10:14:42.515Z,10.53
2018-10-01T10:17:11.055Z,8.97
2018-10-01T10:19:39.579Z,9.57
2018-10-01T10:22:08.185Z,10.30
2018-10-01T10:24:36.669Z,8.80
2018-10-01T10:27:05.249Z,9.83
2018-10-01T10:29:33.745Z,10.47
2018-10-01T10:32:02.321Z,9.50
2018-10-01T10:34:31.052Z,10.20
2018-10-01T10:36:59.569Z,8.23
2018-10-01T10:39:28.129Z,9.63
2018-10-01T10:41:56.730Z,9.00
2018-10-01T10:44:25.282Z,10.20
2018-10-01T10:46:53.786Z,8.87
2018-10-01T10:49:22.288Z,8.80
2018-10-01T10:51:50.820Z,9.37
2018-10-01T10:54:19.347Z,9.80
2018-10-01T10:56:47.956Z,8.53
2018-10-01T10:59:16.459Z,8.87
2018-10-01T11:01:44.985Z,9.90
2018-10-01T11:04:13.608Z,11.20
2018-10-01T11:06:42.107Z,9.80
2018-10-01T11:09:11.704Z,11.13
2018-10-01T11:11:40.244Z,8.80
2018-10-01T11:14:08.884Z,8.67
2018-10-01T11:16:37.352Z,11.77
2018-10-01T11:19:06.124Z,11.80
2018-10-01T11:21:34.769Z,13.97
2018-10-01T11:24:03.404Z,16.90
2018-10-01T11:26:31.925Z,20.10
2018-10-01T11:29:00.662Z,22.17
2018-10-01T11:31:29.152Z,20.23
2018-10-01T11:33:57.678Z,12.27
2018-10-01T11:36:26.208Z,25.03
2018-10-01T11:38:54.804Z,20.53
2018-10-01T11:41:23.264Z,16.90
2018-10-01T11:43:51.812Z,17.90
2018-10-01T11:46:20.327Z,11.70
2018-10-01T11:48:48.849Z,12.23
2018-10-01T11:51:17.432Z,12.47
2018-10-01T11:53:45.933Z,9.23
2018-10-01T11:56:14.469Z,10.33
2018-10-01T11:58:43.031Z,9.57
2018-10-01T12:01:11.549Z,11.10
2018-10-01T12:03:40.136Z,11.77
2018-10-01T12:06:08.623Z,17.27
2018-10-01T12:08:37.135Z,11.90
2018-10-01T12:11:05.727Z,10.60
2018-10-01T12:13:40.988Z,10.30
2018-10-01T12:16:09.660Z,10.93
2018-10-01T12:18:38.065Z,13.17
2018-10-01T12:21:06.641Z,12.67
2018-10-01T12:23:35.222Z,13.50
2018-10-01T12:26:03.776Z,11.70
2018-10-01T12:28:32.303Z,12.20
2018-10-01T12:31:00.857Z,13.30
2018-10-01T12:33:29.702Z,10.80
2018-10-01T12:35:58.189Z,11.73
2018-10-01T12:38:26.746Z,12.97
2018-10-01T12:40:57.226Z,11.67
2018-10-01T12:43:26.024Z,11.83
2018-10-01T12:45:54.520Z,10.93
2018-10-01T12:48:23.606Z,12.27
2018-10-01T12:50:52.665Z,11.70
2018-10-01T12:53:21.194Z,11.40
2018-10-01T12:55:49.762Z,13.17
2018-10-01T12:58:18.330Z,9.30
2018-10-01T13:00:46.885Z,11.47
2018-10-01T13:03:15.392Z,11.03
2018-10-01T13:05:43.972Z,10.93
2018-10-01T13:08:12.488Z,10.87
2018-10-01T13:10:41.027Z,12.17
2018-10-01T13:13:09.536Z,11.70
2018-10-01T13:15:38.072Z,10.13
2018-10-01T13:18:06.615Z,12.47
2018-10-01T13:20:35.131Z,9.87
2018-10-01T13:23:03.662Z,12.60
2018-10-01T13:25:32.138Z,12.87
2018-10-01T13:28:00.677Z,13.73
2018-10-01T13:30:29.261Z,13.47
2018-10-01T13:32:57.748Z,13.50
2018-10-01T13:35:26.255Z,13.90
2018-10-01T13:37:54.813Z,14.23
2018-10-01T13:40:23.286Z,13.50
2018-10-01T13:42:51.812Z,14.20
2018-10-01T13:45:22.272Z,15.33
2018-10-01T13:47:50.796Z,13.83
2018-10-01T13:50:19.951Z,16.10
2018-10-01T13:52:48.457Z,15.60
2018-10-01T13:55:16.976Z,15.43
2018-10-01T13:57:45.569Z,14.73
2018-10-01T14:00:14.094Z,16.27
2018-10-01T14:02:42.648Z,15.73
2018-10-01T14:05:11.205Z,15.87
2018-10-01T14:07:39.723Z,15.87
2018-10-01T14:10:08.906Z,14.20
2018-10-01T14:12:37.434Z,14.70
2018-10-01T14:15:06.515Z,17.40
2018-10-01T14:17:38.102Z,15.37
2018-10-01T14:20:07.051Z,17.20
2018-10-01T14:22:35.360Z,15.23
2018-10-01T14:25:03.979Z,17.40
2018-10-01T14:27:32.494Z,15.87
2018-10-01T14:30:01.060Z,17.77
2018-10-01T14:32:30.630Z,19.37
2018-10-01T14:34:59.184Z,15.63
2018-10-01T14:37:27.713Z,16.67
2018-10-01T14:39:57.154Z,17.63
2018-10-01T14:42:25.772Z,15.13
2018-10-01T14:44:54.276Z,17.43
2018-10-01T14:47:22.815Z,16.30
2018-10-01T14:49:51.341Z,16.83
2018-10-01T14:52:19.867Z,16.33
2018-10-01T14:54:48.400Z,18.33
2018-10-01T14:57:17.371Z,17.63
2018-10-01T14:59:45.956Z,20.83
2018-10-01T15:02:14.453Z,18.67
2018-10-01T15:04:42.968Z,18.47
2018-10-01T15:07:12.092Z,19.43
2018-10-01T15:09:40.680Z,18.40
2018-10-01T15:12:09.360Z,18.30
2018-10-01T15:14:39.055Z,19.23
2018-10-01T15:17:07.685Z,19.43
2018-10-01T15:19:36.181Z,21.47
2018-10-01T15:22:04.701Z,18.00
2018-10-01T15:24:33.638Z,14.00
2018-10-01T15:27:02.152Z,14.77
2018-10-01T15:29:30.680Z,14.30
2018-10-01T15:31:59.358Z,12.93
2018-10-01T15:34:27.903Z,13.50
2018-10-01T15:36:56.540Z,11.90
2018-10-01T15:39:25.053Z,12.67
2018-10-01T15:41:53.637Z,11.50
2018-10-01T15:44:22.205Z,14.07
2018-10-01T15:46:50.678Z,13.87
2018-10-01T15:49:19.179Z,14.00
2018-10-01T15:51:47.708Z,14.20
2018-10-01T15:54:16.246Z,15.57
2018-10-01T15:56:44.754Z,15.50
2018-10-01T15:59:13.282Z,14.40
2018-10-01T16:01:41.817Z,14.00
2018-10-01T16:04:10.344Z,14.40
2018-10-01T16:06:39.203Z,15.60
2018-10-01T16:09:10.000Z,15.25
2018-10-01T16:11:38.612Z,15.30
2018-10-01T16:14:07.564Z,14.50
2018-10-01T16:16:36.112Z,16.17
2018-10-01T16:19:04.861Z,17.07
2018-10-01T16:24:07.299Z,15.90
2018-10-01T16:26:35.885Z,16.97
2018-10-01T16:29:04.463Z,16.10
2018-10-01T16:31:33.050Z,15.10
2018-10-01T16:34:01.740Z,16.60
2018-10-01T16:36:30.469Z,17.63
2018-10-01T16:39:00.531Z,16.90
2018-10-01T16:41:31.311Z,17.17
2018-10-01T16:44:00.407Z,18.12
2018-10-01T16:46:31.410Z,19.33
2018-10-01T16:49:00.046Z,17.87
2018-10-01T16:51:28.980Z,19.17
2018-10-01T16:53:57.521Z,18.27
2018-10-01T16:56:28.657Z,19.17
2018-10-01T16:58:58.211Z,18.90
2018-10-01T17:01:27.096Z,19.03
2018-10-01T17:03:56.185Z,20.23
2018-10-01T17:06:34.303Z,19.37
2018-10-01T17:09:06.636Z,21.37
2018-10-01T17:11:36.902Z,20.70
2018-10-01T17:14:05.524Z,19.70
2018-10-01T17:16:35.604Z,18.23
2018-10-01T17:19:04.115Z,19.00
2018-10-01T17:21:32.666Z,19.27
2018-10-01T17:24:01.339Z,20.13
2018-10-01T17:26:29.868Z,19.70
2018-10-01T17:28:58.420Z,19.47
2018-10-01T17:31:26.964Z,18.63
2018-10-01T17:33:55.892Z,18.53
2018-10-01T17:36:24.970Z,19.60
2018-10-01T17:38:53.576Z,19.27
2018-10-01T17:41:22.547Z,18.57
2018-10-01T17:43:51.921Z,20.10
2018-10-01T17:46:20.491Z,20.75
2018-10-01T17:48:49.861Z,19.55
2018-10-01T17:51:21.598Z,19.63
2018-10-01T17:53:51.619Z,20.02
2018-10-01T17:56:20.205Z,17.23
2018-10-01T17:58:49.811Z,20.57
2018-10-01T18:01:18.406Z,21.15
2018-10-01T18:03:46.991Z,20.80
2018-10-01T18:06:16.272Z,18.98
2018-10-01T18:08:46.656Z,17.57
2018-10-01T18:11:15.684Z,16.75
2018-10-01T18:13:46.837Z,18.43
2018-10-01T18:16:15.933Z,17.50
2018-10-01T18:18:46.427Z,16.75
2018-10-01T18:21:15.366Z,17.23
2018-10-01T18:23:44.521Z,18.30
2018-10-01T18:26:14.021Z,17.67
2018-10-01T18:28:43.756Z,16.67
2018-10-01T18:31:12.680Z,16.48
2018-10-01T18:33:41.992Z,16.03
2018-10-01T18:36:10.556Z,17.35
2018-10-01T18:38:39.063Z,15.37
2018-10-01T18:41:08.172Z,17.30
2018-10-01T18:43:36.819Z,17.67
2018-10-01T18:46:05.308Z,16.93
2018-10-01T18:48:33.832Z,17.30
2018-10-01T18:51:02.365Z,16.32
2018-10-01T18:53:30.879Z,20.25
2018-10-01T18:55:59.984Z,18.23
2018-10-01T18:58:28.496Z,18.02
2018-10-01T19:00:57.053Z,17.30
2018-10-01T19:03:26.238Z,17.87
2018-10-01T19:05:55.169Z,16.15
2018-10-01T19:08:23.709Z,16.02
2018-10-01T19:10:52.296Z,17.05
2018-10-01T19:13:20.847Z,16.45
2018-10-01T19:15:49.383Z,16.42
2018-10-01T19:18:17.915Z,13.88
2018-10-01T19:20:46.516Z,13.83
2018-10-01T19:23:15.313Z,12.68
2018-10-01T19:25:43.941Z,13.33
2018-10-01T19:28:12.496Z,12.55
2018-10-01T19:30:41.039Z,12.47
2018-10-01T19:33:09.972Z,11.60
2018-10-01T19:35:38.602Z,13.25
2018-10-01T19:38:07.091Z,13.32
2018-10-01T19:40:36.013Z,13.10
2018-10-01T19:43:04.820Z,13.00
2018-10-01T19:45:34.526Z,14.05
2018-10-01T19:48:03.086Z,14.68
2018-10-01T19:50:32.254Z,12.70
2018-10-01T19:53:01.730Z,13.40
2018-10-01T19:55:30.185Z,12.95
2018-10-01T19:57:58.728Z,12.20
2018-10-01T20:00:27.325Z,12.30
2018-10-01T20:02:55.911Z,10.75
2018-10-01T20:05:24.425Z,12.50
2018-10-01T20:07:53.076Z,12.75
2018-10-01T20:10:21.635Z,12.15
2018-10-01T20:12:50.225Z,14.65
2018-10-01T20:15:18.832Z,12.47
2018-10-01T20:17:47.856Z,12.55
2018-10-01T20:20:16.344Z,13.53
2018-10-01T20:22:44.935Z,14.63
2018-10-01T20:25:13.444Z,11.48
2018-10-01T20:27:42.104Z,11.97
2018-10-01T20:30:10.709Z,12.43
2018-10-01T20:32:39.236Z,11.75
2018-10-01T20:35:07.994Z,12.80
2018-10-01T20:37:36.407Z,11.10
2018-10-01T20:40:05.104Z,11.45
2018-10-01T20:42:33.742Z,11.03
2018-10-01T20:45:02.335Z,11.25
2018-10-01T20:47:30.875Z,10.65
2018-10-01T20:49:59.531Z,10.10
2018-10-01T20:52:28.146Z,9.63
2018-10-01T20:54:56.644Z,11.35
2018-10-01T20:57:25.171Z,10.80
2018-10-01T20:59:53.680Z,10.50
2018-10-01T21:02:22.301Z,9.20
2018-10-01T21:04:50.776Z,10.75
2018-10-01T21:07:19.345Z,8.60
2018-10-01T21:09:47.844Z,9.98
2018-10-01T21:12:16.457Z,10.65
2018-10-01T21:14:44.972Z,9.10
2018-10-01T21:17:13.499Z,7.75
2018-10-01T21:19:42.004Z,8.30
2018-10-01T21:22:10.568Z,6.92
2018-10-01T21:24:39.073Z,8.70
2018-10-01T21:27:07.781Z,7.50
2018-10-01T21:29:36.308Z,7.37
2018-10-01T21:32:04.819Z,7.40
2018-10-01T21:34:33.339Z,8.10
2018-10-01T21:37:01.876Z,8.48
2018-10-01T21:40:10.389Z,8.30
2018-10-01T21:42:38.916Z,8.55
2018-10-01T21:45:08.235Z,7.25
2018-10-01T21:47:36.761Z,8.30
2018-10-01T21:50:05.328Z,7.55
2018-10-01T21:52:33.850Z,8.80
2018-10-01T21:55:02.444Z,6.72
2018-10-01T21:57:30.979Z,7.40
2018-10-01T21:59:59.484Z,8.18
2018-10-01T22:02:28.024Z,7.70
2018-10-01T22:04:56.520Z,7.60
2018-10-01T22:07:25.113Z,7.90
2018-10-01T22:09:53.595Z,7.55
2018-10-01T22:12:22.119Z,7.50
2018-10-01T22:14:50.649Z,7.20
2018-10-01T22:17:25.599Z,7.65
2018-10-01T22:19:54.091Z,7.87
2018-10-01T22:22:22.612Z,9.00
2018-10-01T22:24:51.144Z,9.88
2018-10-01T22:27:19.663Z,9.13
2018-10-01T22:29:48.179Z,10.30
2018-10-01T22:32:17.840Z,9.88
2018-10-01T22:34:46.376Z,7.58
2018-10-01T22:37:14.897Z,8.10
2018-10-01T22:39:43.451Z,8.40
2018-10-01T22:42:12.043Z,7.20
2018-10-01T22:44:40.598Z,7.53
2018-10-01T22:47:09.105Z,8.28
2018-10-01T22:49:37.645Z,7.80
2018-10-01T22:52:06.159Z,6.78
2018-10-01T22:54:34.687Z,8.70
2018-10-01T22:57:03.257Z,9.53
2018-10-01T22:59:31.769Z,7.95
2018-10-01T23:02:00.311Z,9.00
2018-10-01T23:04:28.816Z,8.13
2018-10-01T23:06:57.363Z,8.35
2018-10-01T23:09:25.872Z,9.68
2018-10-01T23:11:54.412Z,9.65
2018-10-01T23:14:22.928Z,8.93
2018-10-01T23:16:51.453Z,8.68
2018-10-01T23:19:20.020Z,8.83
2018-10-01T23:21:48.524Z,10.68
2018-10-01T23:24:17.064Z,9.48
2018-10-01T23:26:45.556Z,9.60
2018-10-01T23:29:14.111Z,9.23
2018-10-01T23:31:42.648Z,10.90
2018-10-01T23:34:11.190Z,11.97
2018-10-01T23:36:39.683Z,10.65
2018-10-01T23:39:08.177Z,9.50
2018-10-01T23:41:36.703Z,11.83
2018-10-01T23:44:05.204Z,10.58
2018-10-01T23:46:33.753Z,10.82
2018-10-01T23:49:02.232Z,11.85
2018-10-01T23:51:30.763Z,11.20
2018-10-01T23:53:59.280Z,10.63
2018-10-01T23:56:27.856Z,11.25
2018-10-01T23:58:56.436Z,10.58
